Time;durP1;ratioP1;P1;durP2;ratioP2;P2;SDS_P1;SDS_P2;PMS_P1;PMS_P2;Temp;Humidity;BMP_temperature;BMP_pressure;BME280_temperature;BME280_humidity;BME280_pressure;Samples;Min_cycle;Max_cycle;Signal;HPM_P1;HPM_P2
2023/07/10 00:01:36;;;;;;;9.57;2.60;;;18.40;99.90;;;;;;5034364;28;20041;-49
2023/07/10 00:04:03;;;;;;;13.68;3.20;;;18.40;99.90;;;;;;5033957;28;20386;-49
2023/07/10 00:06:30;;;;;;;15.77;3.15;;;18.40;99.90;;;;;;5034050;28;20096;-50
2023/07/10 00:08:57;;;;;;;15.73;3.33;;;18.40;99.90;;;;;;5033972;28;20033;-48
2023/07/10 00:11:24;;;;;;;15.80;3.00;;;18.50;99.90;;;;;;5033266;28;20037;-47
2023/07/10 00:13:51;;;;;;;14.65;3.28;;;18.50;99.90;;;;;;5033797;28;20430;-47
2023/07/10 00:16:18;;;;;;;14.13;2.97;;;18.50;99.90;;;;;;5033120;28;20173;-44
2023/07/10 00:18:45;;;;;;;12.65;2.90;;;18.60;99.90;;;;;;5032550;28;20472;-48
2023/07/10 00:21:12;;;;;;;13.68;3.08;;;18.60;99.90;;;;;;5033554;28;20051;-47
2023/07/10 00:23:39;;;;;;;12.77;3.00;;;18.50;99.90;;;;;;5033851;28;20056;-49
2023/07/10 00:26:05;;;;;;;13.55;3.03;;;18.60;99.90;;;;;;5033849;28;20044;-48
2023/07/10 00:28:32;;;;;;;11.23;2.80;;;18.60;99.90;;;;;;5033700;28;20556;-46
2023/07/10 00:31:00;;;;;;;12.27;2.78;;;18.50;99.90;;;;;;5033577;28;20045;-46
2023/07/10 00:33:27;;;;;;;10.13;2.70;;;18.50;99.90;;;;;;5033552;28;20041;-46
2023/07/10 00:35:54;;;;;;;10.60;3.05;;;18.40;99.90;;;;;;5033987;28;20461;-46
2023/07/10 00:38:24;;;;;;;14.05;2.97;;;18.40;99.90;;;;;;5033735;28;20041;-46
2023/07/10 00:40:52;;;;;;;16.70;3.35;;;18.40;99.90;;;;;;5031967;28;20119;-45
2023/07/10 00:43:18;;;;;;;11.32;2.88;;;18.30;99.90;;;;;;5033220;28;20104;-46
2023/07/10 00:45:45;;;;;;;14.93;3.05;;;18.20;99.90;;;;;;5033739;28;20038;-45
2023/07/10 00:48:12;;;;;;;12.30;2.72;;;18.10;99.90;;;;;;5033234;28;20041;-47
2023/07/10 00:50:39;;;;;;;10.10;2.63;;;18.10;99.90;;;;;;5032163;28;20564;-49
2023/07/10 00:53:05;;;;;;;16.42;3.00;;;18.00;99.90;;;;;;5032989;28;20038;-47
2023/07/10 00:55:32;;;;;;;11.40;2.50;;;18.00;99.90;;;;;;5033110;28;20045;-47
2023/07/10 00:58:00;;;;;;;9.13;2.45;;;17.90;99.90;;;;;;5032917;28;20168;-46
2023/07/10 01:00:29;;;;;;;9.32;2.90;;;17.90;99.90;;;;;;5032108;28;20124;-45
2023/07/10 01:02:56;;;;;;;11.18;2.88;;;17.80;99.90;;;;;;5032840;28;20132;-49
2023/07/10 01:05:23;;;;;;;12.05;2.97;;;17.80;99.90;;;;;;5031804;28;20045;-48
2023/07/10 01:07:50;;;;;;;13.25;2.90;;;17.70;99.90;;;;;;5033029;28;20033;-52
2023/07/10 01:10:17;;;;;;;14.40;3.00;;;17.70;99.90;;;;;;5031668;28;20569;-50
2023/07/10 01:12:44;;;;;;;11.07;3.22;;;17.60;99.90;;;;;;5033272;28;20065;-47
2023/07/10 01:15:11;;;;;;;11.95;3.08;;;17.60;99.90;;;;;;5033313;28;20084;-49
2023/07/10 01:17:38;;;;;;;18.80;4.03;;;17.50;99.90;;;;;;5032074;28;20481;-47
2023/07/10 01:20:05;;;;;;;12.32;3.30;;;17.40;99.90;;;;;;5033451;28;20046;-47
2023/07/10 01:22:32;;;;;;;12.57;2.88;;;17.40;99.90;;;;;;5035425;28;20041;-52
2023/07/10 01:24:59;;;;;;;13.57;4.15;;;17.40;99.90;;;;;;5036891;28;20045;-50
2023/07/10 01:27:28;;;;;;;13.88;3.05;;;17.40;99.90;;;;;;5035710;28;20463;-48
2023/07/10 01:29:54;;;;;;;9.93;3.03;;;17.40;99.90;;;;;;5036917;28;20120;-52
2023/07/10 01:32:23;;;;;;;10.93;2.78;;;17.40;99.90;;;;;;5035390;28;20445;-51
2023/07/10 01:34:51;;;;;;;10.90;2.70;;;17.40;99.90;;;;;;5036996;28;20072;-51
2023/07/10 01:37:18;;;;;;;12.45;3.00;;;17.40;99.90;;;;;;5036813;28;20049;-49
2023/07/10 01:39:45;;;;;;;12.77;3.65;;;17.30;99.90;;;;;;5036748;28;20052;-47
2023/07/10 01:42:12;;;;;;;15.13;3.35;;;17.30;99.90;;;;;;5037017;28;20041;-51
2023/07/10 01:44:38;;;;;;;12.40;3.65;;;17.30;99.90;;;;;;5036787;28;20487;-50
2023/07/10 01:47:05;;;;;;;12.10;3.50;;;17.20;99.90;;;;;;5036693;28;20230;-50
2023/07/10 01:49:32;;;;;;;11.05;2.83;;;17.20;99.90;;;;;;5035594;28;20037;-50
2023/07/10 01:51:59;;;;;;;10.65;3.13;;;17.20;99.90;;;;;;5036784;28;20045;-50
2023/07/10 01:54:26;;;;;;;12.27;3.05;;;17.10;99.90;;;;;;5036325;28;20037;-51
2023/07/10 01:56:52;;;;;;;11.40;2.83;;;17.10;99.90;;;;;;5035269;28;20133;-50
2023/07/10 01:59:19;;;;;;;13.55;2.95;;;17.00;99.90;;;;;;5018752;28;20096;-50
2023/07/10 02:01:46;;;;;;;8.10;2.67;;;17.00;99.90;;;;;;5035258;28;20053;-50
2023/07/10 02:04:13;;;;;;;11.38;3.15;;;17.00;99.90;;;;;;5035058;28;20076;-49
2023/07/10 02:06:40;;;;;;;13.15;4.05;;;16.90;99.90;;;;;;5036227;28;20045;-52
2023/07/10 02:09:06;;;;;;;15.20;3.05;;;16.90;99.90;;;;;;5036215;28;20543;-48
2023/07/10 02:11:37;;;;;;;12.10;3.63;;;16.80;99.90;;;;;;5034892;28;20103;-48
2023/07/10 02:14:04;;;;;;;12.07;3.13;;;16.80;99.90;;;;;;5036280;28;20065;-47
2023/07/10 02:16:31;;;;;;;12.27;3.30;;;16.80;99.90;;;;;;5034817;28;20432;-48
2023/07/10 02:18:58;;;;;;;11.55;3.40;;;16.80;99.90;;;;;;5036186;28;20391;-48
2023/07/10 02:21:25;;;;;;;11.18;3.10;;;16.70;99.90;;;;;;5034691;28;20133;-45
2023/07/10 02:23:52;;;;;;;11.93;3.38;;;16.70;99.90;;;;;;5035872;28;20112;-49
2023/07/10 02:26:19;;;;;;;10.77;3.35;;;16.60;99.90;;;;;;5034408;28;20487;-47
2023/07/10 02:28:49;;;;;;;14.55;3.50;;;16.60;99.90;;;;;;5035788;28;20116;-47
2023/07/10 02:31:16;;;;;;;12.27;3.30;;;16.60;99.90;;;;;;5035489;28;20401;-49
2023/07/10 02:33:43;;;;;;;11.43;3.38;;;16.60;99.90;;;;;;5034110;28;20045;-50
2023/07/10 02:36:12;;;;;;;13.73;3.45;;;16.50;99.90;;;;;;5034253;28;20136;-48
2023/07/10 02:38:39;;;;;;;14.13;3.17;;;16.60;99.90;;;;;;5035932;28;20041;-54
2023/07/10 02:41:05;;;;;;;13.07;3.33;;;16.50;99.90;;;;;;5034165;28;20067;-49
2023/07/10 02:43:32;;;;;;;14.50;3.33;;;16.50;99.90;;;;;;5035458;28;20037;-53
2023/07/10 02:46:01;;;;;;;11.68;3.25;;;16.40;99.90;;;;;;5035616;28;20045;-48
2023/07/10 02:48:28;;;;;;;13.35;3.30;;;16.50;99.90;;;;;;5035401;28;20049;-51
2023/07/10 02:50:54;;;;;;;20.35;3.63;;;16.50;99.90;;;;;;5035691;28;20056;-51
2023/07/10 02:53:21;;;;;;;13.48;3.83;;;16.40;99.90;;;;;;5034396;28;20041;-49
2023/07/10 02:55:48;;;;;;;13.32;2.92;;;16.40;99.90;;;;;;5034085;28;20611;-52
2023/07/10 02:58:15;;;;;;;14.55;3.63;;;16.40;99.90;;;;;;5035239;28;20389;-52
2023/07/10 03:00:42;;;;;;;14.55;3.70;;;16.40;99.90;;;;;;5035478;28;20037;-54
2023/07/10 03:03:08;;;;;;;14.90;3.42;;;16.30;99.90;;;;;;5033901;28;20096;-51
2023/07/10 03:05:35;;;;;;;11.48;3.33;;;16.30;99.90;;;;;;5035250;28;20046;-50
2023/07/10 03:08:02;;;;;;;15.85;3.65;;;16.30;99.90;;;;;;5035468;28;20049;-52
2023/07/10 03:10:29;;;;;;;13.63;3.30;;;16.30;99.90;;;;;;5034940;28;20473;-50
2023/07/10 03:12:56;;;;;;;12.55;2.97;;;16.20;99.90;;;;;;5034065;28;20159;-49
2023/07/10 03:15:23;;;;;;;13.02;3.53;;;16.20;99.90;;;;;;5033834;28;20057;-49
2023/07/10 03:17:50;;;;;;;12.57;3.38;;;16.20;99.90;;;;;;5035187;28;20045;-50
2023/07/10 03:20:17;;;;;;;11.43;3.17;;;16.20;99.90;;;;;;5034964;28;20041;-53
2023/07/10 03:22:44;;;;;;;16.10;3.60;;;16.20;99.90;;;;;;5034786;28;20041;-48
2023/07/10 03:25:10;;;;;;;14.80;3.10;;;16.10;99.90;;;;;;5034934;28;20041;-49
2023/07/10 03:27:37;;;;;;;14.35;3.30;;;16.10;99.90;;;;;;5034800;28;20087;-50
2023/07/10 03:30:04;;;;;;;15.80;3.78;;;16.00;99.90;;;;;;5035088;28;20041;-46
2023/07/10 03:32:31;;;;;;;12.20;3.30;;;16.00;99.90;;;;;;5034710;28;20041;-53
2023/07/10 03:34:58;;;;;;;15.95;3.40;;;16.00;99.90;;;;;;5034503;28;20103;-48
2023/07/10 03:37:25;;;;;;;17.27;4.18;;;16.00;99.90;;;;;;5034538;28;20484;-51
2023/07/10 03:39:51;;;;;;;11.38;2.85;;;16.00;99.90;;;;;;5034624;28;20049;-46
2023/07/10 03:42:18;;;;;;;11.10;2.83;;;16.00;99.90;;;;;;5034470;28;20055;-51
2023/07/10 03:44:45;;;;;;;12.40;3.40;;;16.00;99.90;;;;;;5034064;28;20037;-52
2023/07/10 03:47:12;;;;;;;11.60;3.30;;;15.90;99.90;;;;;;5034498;28;20072;-46
2023/07/10 03:49:39;;;;;;;14.88;3.20;;;15.90;99.90;;;;;;5034675;28;20087;-47
2023/07/10 03:52:06;;;;;;;15.38;3.83;;;15.90;99.90;;;;;;5034119;28;20047;-45
2023/07/10 03:54:33;;;;;;;12.20;3.20;;;15.90;99.90;;;;;;5034188;28;20049;-46
2023/07/10 03:57:00;;;;;;;15.82;3.42;;;15.80;99.90;;;;;;5033865;28;20073;-51
2023/07/10 03:59:27;;;;;;;18.35;3.20;;;15.80;99.90;;;;;;5033864;28;20107;-48
2023/07/10 04:01:53;;;;;;;13.85;3.45;;;15.80;99.90;;;;;;5034504;28;20049;-49
2023/07/10 04:04:20;;;;;;;13.43;3.25;;;15.80;99.90;;;;;;5034172;28;20037;-49
2023/07/10 04:06:47;;;;;;;11.35;3.85;;;15.80;99.90;;;;;;5034389;28;20124;-49
2023/07/10 04:09:18;;;;;;;12.23;3.40;;;15.70;99.90;;;;;;5034388;28;20045;-52
2023/07/10 04:11:44;;;;;;;10.75;2.97;;;15.70;99.90;;;;;;5034140;28;20038;-53
2023/07/10 04:14:11;;;;;;;10.93;2.95;;;15.70;99.90;;;;;;5033924;28;20041;-54
2023/07/10 04:16:38;;;;;;;14.82;3.30;;;15.70;99.90;;;;;;5033639;28;20045;-45
2023/07/10 04:19:05;;;;;;;11.07;3.13;;;15.60;99.90;;;;;;5033928;28;20046;-47
2023/07/10 04:21:31;;;;;;;15.90;3.58;;;15.70;99.90;;;;;;5033619;28;20487;-47
2023/07/10 04:23:58;;;;;;;18.40;3.30;;;15.70;99.90;;;;;;5033812;28;20042;-48
2023/07/10 04:26:25;;;;;;;14.18;3.20;;;15.60;99.90;;;;;;5033883;28;20037;-50
2023/07/10 04:28:52;;;;;;;13.02;3.08;;;15.70;99.90;;;;;;5033768;28;20037;-51
2023/07/10 04:31:19;;;;;;;14.40;3.80;;;15.70;99.90;;;;;;5033657;28;20037;-51
2023/07/10 04:33:46;;;;;;;14.55;3.17;;;15.70;99.90;;;;;;5033507;28;20040;-46
2023/07/10 04:36:13;;;;;;;11.15;3.25;;;15.70;99.90;;;;;;5032667;28;20484;-50
2023/07/10 04:38:39;;;;;;;10.80;2.92;;;15.70;99.90;;;;;;5033764;28;20492;-49
2023/07/10 04:41:06;;;;;;;13.15;3.10;;;15.70;99.90;;;;;;5033485;28;20455;-47
2023/07/10 04:43:33;;;;;;;11.27;3.20;;;15.70;99.90;;;;;;5032442;28;20065;-52
2023/07/10 04:46:00;;;;;;;14.75;3.47;;;15.80;99.90;;;;;;5034061;28;20053;-50
2023/07/10 04:48:26;;;;;;;16.75;3.45;;;15.80;99.90;;;;;;5033453;28;20037;-48
2023/07/10 04:50:53;;;;;;;14.52;3.50;;;15.90;99.90;;;;;;5033374;28;20042;-47
2023/07/10 04:53:20;;;;;;;10.40;3.40;;;16.00;99.90;;;;;;5033545;28;20037;-48
2023/07/10 04:55:47;;;;;;;9.80;3.10;;;16.10;99.90;;;;;;5034073;28;20072;-49
2023/07/10 04:58:14;;;;;;;11.45;3.08;;;16.20;99.90;;;;;;5037393;28;20499;-48
2023/07/10 05:00:41;;;;;;;16.85;3.80;;;16.30;99.90;;;;;;5037755;28;20063;-50
2023/07/10 05:03:07;;;;;;;15.55;3.25;;;16.40;99.90;;;;;;5037725;28;20042;-49
2023/07/10 05:05:34;;;;;;;13.80;3.90;;;16.50;99.90;;;;;;5037529;28;20048;-48
2023/07/10 05:08:01;;;;;;;10.02;3.00;;;16.60;99.90;;;;;;5037413;28;20038;-46
2023/07/10 05:10:28;;;;;;;12.65;3.25;;;16.80;99.90;;;;;;5037346;28;20046;-49
2023/07/10 05:12:54;;;;;;;10.48;2.78;;;16.90;99.90;;;;;;5037378;28;20033;-46
2023/07/10 05:15:21;;;;;;;8.70;2.78;;;17.10;99.90;;;;;;5037509;28;20042;-45
2023/07/10 05:17:48;;;;;;;13.35;3.20;;;17.20;99.90;;;;;;5037497;28;20103;-46
2023/07/10 05:20:15;;;;;;;14.95;3.25;;;17.30;99.90;;;;;;5037450;28;20037;-48
2023/07/10 05:22:42;;;;;;;8.35;2.22;;;17.40;99.90;;;;;;5036872;28;20052;-50
2023/07/10 05:25:08;;;;;;;9.48;2.55;;;17.40;99.90;;;;;;5035888;28;20045;-44
2023/07/10 05:27:37;;;;;;;6.43;2.13;;;17.50;99.90;;;;;;5037595;28;20048;-49
2023/07/10 05:30:04;;;;;;;8.75;2.50;;;17.60;99.90;;;;;;5037148;28;20041;-50
2023/07/10 05:32:30;;;;;;;8.77;2.65;;;17.60;99.90;;;;;;5036961;28;20050;-47
2023/07/10 05:34:57;;;;;;;9.70;2.78;;;17.80;99.90;;;;;;5036908;28;20112;-49
2023/07/10 05:37:26;;;;;;;9.23;2.15;;;17.80;99.90;;;;;;5036954;28;20049;-47
2023/07/10 05:39:53;;;;;;;10.02;2.55;;;18.00;99.90;;;;;;5037123;28;20516;-48
2023/07/10 05:42:20;;;;;;;8.70;2.42;;;18.10;99.90;;;;;;5036784;28;20041;-51
2023/07/10 05:44:46;;;;;;;9.18;2.30;;;18.20;99.90;;;;;;5036917;28;20464;-49
2023/07/10 05:47:13;;;;;;;13.10;3.03;;;18.20;99.90;;;;;;5036963;28;20041;-45
2023/07/10 05:49:40;;;;;;;8.57;2.22;;;18.30;99.90;;;;;;5036783;28;20076;-50
2023/07/10 05:52:07;;;;;;;12.90;2.80;;;18.30;99.90;;;;;;5036929;28;20037;-45
2023/07/10 05:54:34;;;;;;;10.75;2.55;;;18.40;99.90;;;;;;5036824;28;20041;-45
2023/07/10 05:57:01;;;;;;;8.80;2.42;;;18.40;99.90;;;;;;5036710;28;20056;-51
2023/07/10 05:59:28;;;;;;;10.10;2.40;;;18.50;99.90;;;;;;5036443;28;20064;-50
2023/07/10 06:01:54;;;;;;;11.07;3.05;;;18.70;99.90;;;;;;5036419;28;20128;-46
2023/07/10 06:04:21;;;;;;;10.10;2.40;;;18.70;99.90;;;;;;5036689;28;20045;-48
2023/07/10 06:06:48;;;;;;;10.25;2.75;;;18.80;99.90;;;;;;5036340;28;20041;-45
2023/07/10 06:09:15;;;;;;;11.25;2.53;;;18.90;99.90;;;;;;5036661;28;20033;-47
2023/07/10 06:11:42;;;;;;;11.15;2.78;;;18.80;99.90;;;;;;5035248;28;20069;-49
2023/07/10 06:14:08;;;;;;;10.73;2.88;;;18.80;99.90;;;;;;5036133;28;20473;-47
2023/07/10 06:16:35;;;;;;;10.82;2.50;;;18.80;99.90;;;;;;5034959;28;20095;-50
2023/07/10 06:19:02;;;;;;;12.70;2.58;;;18.70;99.90;;;;;;5036182;28;20038;-45
2023/07/10 06:21:29;;;;;;;11.95;2.45;;;18.70;99.90;;;;;;5036391;28;20422;-45
2023/07/10 06:23:56;;;;;;;10.77;2.30;;;18.60;99.90;;;;;;5036368;28;20056;-45
2023/07/10 06:26:22;;;;;;;8.68;2.33;;;18.60;99.90;;;;;;5036053;28;20049;-49
2023/07/10 06:28:49;;;;;;;9.70;2.45;;;18.60;99.90;;;;;;5036135;28;20042;-46
2023/07/10 06:31:16;;;;;;;10.32;1.95;;;18.60;99.90;;;;;;5036266;28;20069;-45
2023/07/10 06:33:43;;;;;;;8.13;2.25;;;18.60;99.90;;;;;;5035968;28;20373;-49
2023/07/10 06:36:10;;;;;;;11.13;2.45;;;18.50;99.90;;;;;;5034550;28;20056;-44
2023/07/10 06:38:37;;;;;;;10.52;1.77;;;18.50;99.90;;;;;;5035259;28;20077;-46
2023/07/10 06:41:05;;;;;;;11.65;2.10;;;18.50;99.90;;;;;;5034650;28;20041;-47
2023/07/10 06:43:33;;;;;;;6.30;1.60;;;18.50;99.90;;;;;;5033390;28;20033;-45
2023/07/10 06:46:00;;;;;;;7.47;1.45;;;18.50;99.90;;;;;;5033629;28;20083;-47
2023/07/10 06:48:27;;;;;;;8.07;1.65;;;18.60;99.90;;;;;;5033686;28;20084;-47
2023/07/10 06:50:53;;;;;;;9.98;1.80;;;18.60;99.90;;;;;;5034760;28;20045;-49
2023/07/10 06:53:20;;;;;;;7.47;1.70;;;18.60;99.90;;;;;;5034743;28;20037;-45
2023/07/10 06:55:53;;;;;;;6.30;1.60;;;18.60;99.90;;;;;;5030962;28;20050;-50
2023/07/10 06:58:20;;;;;;;8.00;2.10;;;18.60;99.90;;;;;;5034414;28;20052;-50
2023/07/10 07:00:47;;;;;;;9.13;1.73;;;18.70;99.90;;;;;;5034512;28;20037;-46
2023/07/10 07:03:14;;;;;;;6.22;1.60;;;18.70;99.90;;;;;;5034073;28;20044;-46
2023/07/10 07:05:41;;;;;;;5.68;1.52;;;18.70;99.40;;;;;;5034277;28;20052;-47
2023/07/10 07:08:07;;;;;;;5.75;1.30;;;18.80;99.10;;;;;;5034449;28;20042;-48
2023/07/10 07:10:34;;;;;;;7.43;1.40;;;18.90;99.10;;;;;;5034938;28;20037;-48
2023/07/10 07:13:01;;;;;;;6.70;2.08;;;19.00;98.10;;;;;;5034661;28;20493;-49
2023/07/10 07:15:28;;;;;;;11.25;1.70;;;19.00;98.10;;;;;;5034001;28;20037;-52
2023/07/10 07:17:54;;;;;;;7.65;1.33;;;19.10;97.90;;;;;;5034593;28;20053;-48
2023/07/10 07:20:21;;;;;;;8.20;1.50;;;19.20;97.90;;;;;;5033901;28;20523;-50
2023/07/10 07:22:48;;;;;;;5.28;1.30;;;19.20;97.90;;;;;;5033696;28;20053;-48
2023/07/10 07:25:15;;;;;;;9.65;1.60;;;19.30;97.60;;;;;;5034501;28;20051;-50
2023/07/10 07:27:42;;;;;;;7.93;1.48;;;19.30;97.40;;;;;;5034246;28;20029;-49
2023/07/10 07:30:09;;;;;;;6.75;1.42;;;19.40;97.10;;;;;;5033902;28;20040;-51
2023/07/10 07:32:36;;;;;;;7.22;1.60;;;19.40;97.00;;;;;;5034630;28;20046;-48
2023/07/10 07:35:03;;;;;;;7.95;1.60;;;19.50;97.10;;;;;;5032961;28;20041;-49
2023/07/10 07:37:29;;;;;;;7.25;1.55;;;19.60;96.90;;;;;;5033585;28;20057;-48
2023/07/10 07:39:58;;;;;;;6.97;1.48;;;19.60;97.10;;;;;;5029580;28;20048;-50
2023/07/10 07:42:25;;;;;;;7.40;1.45;;;19.70;97.10;;;;;;5033355;28;20041;-50
2023/07/10 07:44:52;;;;;;;6.65;1.40;;;19.70;97.50;;;;;;5033537;28;20052;-47
2023/07/10 07:47:19;;;;;;;7.78;1.60;;;19.80;97.70;;;;;;5033392;28;20157;-48
2023/07/10 07:49:46;;;;;;;6.30;1.58;;;19.90;97.70;;;;;;5034311;28;20080;-50
2023/07/10 07:52:12;;;;;;;8.07;1.70;;;20.00;97.60;;;;;;5034113;28;20049;-47
2023/07/10 07:54:39;;;;;;;8.98;1.70;;;20.00;97.10;;;;;;5033352;28;20053;-48
2023/07/10 07:57:08;;;;;;;6.93;1.67;;;20.10;97.40;;;;;;5033993;28;21014;-48
2023/07/10 07:59:35;;;;;;;6.82;2.10;;;20.20;97.30;;;;;;5032273;28;20054;-46
2023/07/10 08:02:01;;;;;;;7.95;1.60;;;20.30;97.20;;;;;;5033608;28;20053;-46
2023/07/10 08:04:28;;;;;;;6.00;1.55;;;20.40;97.20;;;;;;5032640;28;20535;-47
2023/07/10 08:06:55;;;;;;;7.00;1.50;;;20.40;97.00;;;;;;5033315;28;20030;-46
2023/07/10 08:09:22;;;;;;;8.95;1.77;;;20.50;97.30;;;;;;5033270;28;20041;-47
2023/07/10 08:11:49;;;;;;;7.07;1.40;;;20.50;97.40;;;;;;5033283;28;20084;-50
2023/07/10 08:14:16;;;;;;;7.72;1.80;;;20.50;97.50;;;;;;5033007;28;20037;-46
2023/07/10 08:16:42;;;;;;;8.07;1.80;;;20.50;97.40;;;;;;5032511;28;20037;-51
2023/07/10 08:19:09;;;;;;;8.57;1.80;;;20.50;97.40;;;;;;5033046;28;20092;-47
2023/07/10 08:21:36;;;;;;;6.78;1.70;;;20.50;97.00;;;;;;5033203;28;20042;-48
2023/07/10 08:24:03;;;;;;;8.35;1.65;;;20.50;97.10;;;;;;5033008;28;20492;-47
2023/07/10 08:26:31;;;;;;;6.45;1.50;;;20.50;97.10;;;;;;5032872;28;20065;-49
2023/07/10 08:28:58;;;;;;;8.10;1.95;;;20.50;97.20;;;;;;5032846;28;20421;-46
2023/07/10 08:31:24;;;;;;;8.60;2.03;;;20.60;97.20;;;;;;5032199;28;20034;-49
2023/07/10 08:33:51;;;;;;;10.02;2.03;;;20.50;97.20;;;;;;5032984;28;20045;-46
2023/07/10 08:36:18;;;;;;;6.18;1.73;;;20.70;96.70;;;;;;5031888;28;20099;-47
2023/07/10 08:38:45;;;;;;;7.47;1.85;;;20.80;97.10;;;;;;5032994;28;20447;-48
2023/07/10 08:41:12;;;;;;;9.02;2.17;;;21.00;96.70;;;;;;5032655;28;20045;-46
2023/07/10 08:43:39;;;;;;;7.30;2.00;;;21.10;96.10;;;;;;5033079;28;20050;-49
2023/07/10 08:46:05;;;;;;;10.45;2.15;;;21.30;96.60;;;;;;5032136;28;20049;-47
2023/07/10 08:48:33;;;;;;;7.07;1.73;;;21.40;96.10;;;;;;5032807;28;20116;-47
2023/07/10 08:50:59;;;;;;;9.65;2.05;;;21.50;96.30;;;;;;5032737;28;20061;-46
2023/07/10 08:53:26;;;;;;;7.13;1.85;;;21.60;96.10;;;;;;5031643;28;20038;-52
2023/07/10 08:55:53;;;;;;;7.68;2.00;;;21.50;95.60;;;;;;5032554;28;20038;-45
2023/07/10 08:58:20;;;;;;;7.35;1.60;;;21.40;95.20;;;;;;5032650;28;20054;-44
2023/07/10 09:00:47;;;;;;;8.70;2.00;;;21.30;95.40;;;;;;5032682;28;20038;-45
2023/07/10 09:03:14;;;;;;;7.63;1.60;;;21.30;95.50;;;;;;5032581;28;20484;-49
2023/07/10 09:05:40;;;;;;;7.22;1.98;;;21.30;95.80;;;;;;5032416;28;20121;-49
2023/07/10 09:08:07;;;;;;;9.88;2.10;;;21.40;95.70;;;;;;5032544;28;20042;-48
2023/07/10 09:10:34;;;;;;;10.52;2.38;;;21.50;95.80;;;;;;5032873;28;20176;-52
2023/07/10 09:13:04;;;;;;;6.88;1.80;;;21.50;96.00;;;;;;5032474;28;20425;-48
2023/07/10 09:15:31;;;;;;;8.85;1.70;;;21.70;96.10;;;;;;5032377;28;20515;-50
2023/07/10 09:18:01;;;;;;;8.98;1.98;;;21.70;95.90;;;;;;5032593;28;20451;-53
2023/07/10 09:20:28;;;;;;;6.93;1.63;;;21.70;95.40;;;;;;5032349;28;20049;-50
2023/07/10 09:22:55;;;;;;;6.25;1.67;;;21.70;95.40;;;;;;5032280;28;20049;-50
2023/07/10 09:25:22;;;;;;;8.27;1.73;;;21.70;95.70;;;;;;5032100;28;20128;-51
2023/07/10 09:27:48;;;;;;;8.27;2.08;;;21.60;95.70;;;;;;5032486;28;20084;-50
2023/07/10 09:30:15;;;;;;;9.50;1.73;;;21.70;95.80;;;;;;5032526;28;20045;-45
2023/07/10 09:32:42;;;;;;;7.32;1.85;;;21.70;95.70;;;;;;5032330;28;20044;-48
2023/07/10 09:35:09;;;;;;;10.13;1.85;;;21.80;95.30;;;;;;5032145;28;20093;-54
2023/07/10 09:37:36;;;;;;;6.90;2.00;;;21.90;94.90;;;;;;5029553;28;20041;-51
2023/07/10 09:40:03;;;;;;;8.32;1.92;;;21.90;95.00;;;;;;5032208;28;20504;-52
2023/07/10 09:42:29;;;;;;;10.05;1.92;;;22.00;95.00;;;;;;5014655;28;20038;-46
2023/07/10 09:44:56;;;;;;;7.40;1.60;;;22.00;94.90;;;;;;5033212;28;20568;-49
2023/07/10 09:47:23;;;;;;;8.07;1.70;;;22.00;95.20;;;;;;5034780;28;20515;-49
2023/07/10 09:49:50;;;;;;;8.55;1.67;;;22.10;95.20;;;;;;5035665;28;20535;-48
2023/07/10 09:52:17;;;;;;;7.90;1.77;;;22.10;94.80;;;;;;5035885;28;20033;-48
2023/07/10 09:54:44;;;;;;;10.70;1.80;;;22.10;94.70;;;;;;5035527;28;20043;-49
2023/07/10 09:57:10;;;;;;;5.60;1.52;;;22.10;94.00;;;;;;5034369;28;20050;-47
2023/07/10 09:59:37;;;;;;;5.75;1.70;;;22.10;93.80;;;;;;5035447;28;20501;-51
2023/07/10 10:02:04;;;;;;;5.78;1.48;;;22.10;94.10;;;;;;5035621;28;20045;-47
2023/07/10 10:04:32;;;;;;;9.27;1.63;;;22.10;93.70;;;;;;5035109;28;20037;-49
2023/07/10 10:06:59;;;;;;;5.25;1.55;;;22.20;93.80;;;;;;5035440;28;20037;-48
2023/07/10 10:09:28;;;;;;;5.60;1.65;;;22.20;93.80;;;;;;5035639;28;20033;-47
2023/07/10 10:11:55;;;;;;;7.35;1.75;;;22.30;93.20;;;;;;5035483;28;20041;-47
2023/07/10 10:14:22;;;;;;;5.28;1.55;;;22.40;93.30;;;;;;5035350;28;20045;-50
2023/07/10 10:16:49;;;;;;;8.98;2.42;;;22.60;93.00;;;;;;5035082;28;20416;-51
2023/07/10 10:19:16;;;;;;;6.25;1.80;;;22.80;93.10;;;;;;5035432;28;20045;-52
2023/07/10 10:21:42;;;;;;;5.50;1.63;;;23.00;92.80;;;;;;5035389;28;20056;-49
2023/07/10 10:24:09;;;;;;;6.68;1.60;;;23.20;92.80;;;;;;5035184;28;20033;-48
2023/07/10 10:26:36;;;;;;;6.75;1.50;;;23.20;92.30;;;;;;5033731;28;20068;-50
2023/07/10 10:29:03;;;;;;;7.05;1.65;;;23.20;92.60;;;;;;5034107;28;20473;-48
2023/07/10 10:31:30;;;;;;;7.90;1.60;;;23.30;91.60;;;;;;5035129;28;20034;-45
2023/07/10 10:33:57;;;;;;;7.07;1.77;;;23.30;91.90;;;;;;5035077;28;20099;-46
2023/07/10 10:36:24;;;;;;;6.07;1.55;;;23.40;92.00;;;;;;5034824;28;20045;-48
2023/07/10 10:38:50;;;;;;;8.38;1.80;;;23.40;91.90;;;;;;5035004;28;20132;-46
2023/07/10 10:41:17;;;;;;;6.43;1.65;;;23.40;91.90;;;;;;5034545;28;20041;-45
2023/07/10 10:43:44;;;;;;;8.07;1.75;;;23.60;91.40;;;;;;5034755;28;20049;-48
2023/07/10 10:46:11;;;;;;;8.38;1.65;;;23.60;91.10;;;;;;5034356;28;20041;-45
2023/07/10 10:48:38;;;;;;;6.53;1.90;;;23.60;91.20;;;;;;5034791;28;20045;-47
2023/07/10 10:51:05;;;;;;;8.27;1.80;;;23.70;91.80;;;;;;5034715;28;20526;-45
2023/07/10 10:53:35;;;;;;;5.15;1.45;;;23.80;91.40;;;;;;5033668;28;20042;-45
2023/07/10 10:56:02;;;;;;;5.85;1.48;;;23.90;91.00;;;;;;5034476;28;20485;-44
2023/07/10 10:58:29;;;;;;;5.90;1.73;;;23.90;91.00;;;;;;5034317;28;20076;-44
2023/07/10 11:00:56;;;;;;;8.00;1.60;;;24.00;90.10;;;;;;5034613;28;20049;-48
2023/07/10 11:03:23;;;;;;;7.88;1.85;;;24.00;89.90;;;;;;5034491;28;20103;-49
2023/07/10 11:05:50;;;;;;;8.10;2.28;;;24.00;90.30;;;;;;5034756;28;20072;-48
2023/07/10 11:08:17;;;;;;;7.57;1.67;;;24.10;90.30;;;;;;5034885;28;20045;-48
2023/07/10 11:10:43;;;;;;;6.45;1.90;;;24.10;90.20;;;;;;5035092;28;20053;-49
2023/07/10 11:13:10;;;;;;;8.40;1.85;;;24.20;89.60;;;;;;5033265;28;20408;-51
2023/07/10 11:15:37;;;;;;;7.93;1.80;;;24.30;89.80;;;;;;5034021;28;20044;-49
2023/07/10 11:18:04;;;;;;;5.25;1.60;;;24.30;88.80;;;;;;5034733;28;20044;-48
2023/07/10 11:20:31;;;;;;;5.00;1.55;;;24.30;89.50;;;;;;5026268;28;20057;-49
2023/07/10 11:22:57;;;;;;;8.00;1.75;;;24.30;89.80;;;;;;5034642;28;20038;-50
2023/07/10 11:25:24;;;;;;;6.70;1.65;;;24.30;89.50;;;;;;5034374;28;20046;-49
2023/07/10 11:27:51;;;;;;;5.13;1.48;;;24.40;89.60;;;;;;5033629;28;20047;-46
2023/07/10 11:30:18;;;;;;;7.07;1.38;;;24.40;89.10;;;;;;5033108;28;20049;-48
2023/07/10 11:32:48;;;;;;;7.93;1.80;;;24.40;88.90;;;;;;5033556;28;20041;-48
2023/07/10 11:35:15;;;;;;;5.05;1.60;;;24.50;89.80;;;;;;5033833;28;20038;-50
2023/07/10 11:37:47;;;;;;;5.60;1.60;;;24.60;89.50;;;;;;5034153;28;20056;-50
2023/07/10 11:40:14;;;;;;;6.25;1.70;;;24.70;89.30;;;;;;5033520;28;20448;-48
2023/07/10 11:42:40;;;;;;;7.88;1.88;;;24.80;89.20;;;;;;5034501;28;20444;-50
2023/07/10 11:45:07;;;;;;;6.32;1.60;;;24.80;88.30;;;;;;5033811;28;20377;-46
2023/07/10 11:47:34;;;;;;;5.07;1.48;;;24.90;88.00;;;;;;5033905;28;20065;-48
2023/07/10 11:50:01;;;;;;;6.68;1.80;;;24.90;88.80;;;;;;5033350;28;20542;-51
2023/07/10 11:52:28;;;;;;;8.25;1.70;;;25.00;89.10;;;;;;5032930;28;20042;-50
2023/07/10 11:54:54;;;;;;;5.00;1.40;;;25.00;87.70;;;;;;5033378;28;20099;-49
2023/07/10 11:57:24;;;;;;;4.13;1.45;;;25.00;87.20;;;;;;5033397;28;20381;-45
2023/07/10 11:59:51;;;;;;;5.93;1.75;;;24.90;87.30;;;;;;5033406;28;20053;-46
2023/07/10 12:02:18;;;;;;;5.88;1.42;;;24.90;88.10;;;;;;5033334;28;20037;-46
2023/07/10 12:04:45;;;;;;;5.28;1.25;;;24.90;87.20;;;;;;5031843;28;20099;-46
2023/07/10 12:07:12;;;;;;;4.97;1.30;;;24.70;87.10;;;;;;5032537;28;20045;-46
2023/07/10 12:09:38;;;;;;;5.70;1.65;;;24.70;88.30;;;;;;5033296;28;20034;-49
2023/07/10 12:12:05;;;;;;;5.78;1.50;;;24.80;88.60;;;;;;5033122;28;20039;-46
2023/07/10 12:14:32;;;;;;;6.88;1.40;;;24.80;87.30;;;;;;5033347;28;20044;-48
2023/07/10 12:16:58;;;;;;;7.78;1.88;;;24.80;87.40;;;;;;5032851;28;20045;-47
2023/07/10 12:19:28;;;;;;;6.07;1.58;;;24.90;87.30;;;;;;5033151;28;20115;-46
2023/07/10 12:21:55;;;;;;;5.82;1.58;;;25.10;87.10;;;;;;5033043;28;20456;-46
2023/07/10 12:24:22;;;;;;;5.72;1.75;;;25.10;86.10;;;;;;5033264;28;20117;-46
2023/07/10 12:26:48;;;;;;;6.85;1.70;;;25.00;86.40;;;;;;5032881;28;20041;-48
2023/07/10 12:29:36;;;;;;;4.68;1.50;;;24.90;86.30;;;;;;5033079;28;20042;-50
2023/07/10 12:32:03;;;;;;;6.20;1.95;;;24.90;86.10;;;;;;5032787;28;20120;-46
2023/07/10 12:34:30;;;;;;;5.38;1.58;;;24.90;86.20;;;;;;5032719;28;20143;-49
2023/07/10 12:37:00;;;;;;;10.38;2.00;;;24.80;85.90;;;;;;5032836;28;20049;-50
2023/07/10 12:39:27;;;;;;;7.82;1.80;;;24.70;86.10;;;;;;5032365;28;20045;-53
2023/07/10 12:41:54;;;;;;;5.13;1.60;;;24.80;87.30;;;;;;5032784;28;20059;-51